sensor_id;sensor_type;location;lat;lon;timestamp;pressure;altitude;pressure_sealevel;temperature;humidity
66742;BME280;53654;54.152;19.432;2023-02-04T00:01:57;101719.80;;;0.78;71.42
66742;BME280;53654;54.152;19.432;2023-02-04T00:04:26;101725.79;;;0.78;71.49
66742;BME280;53654;54.152;19.432;2023-02-04T00:06:54;101735.66;;;0.76;71.38
66742;BME280;53654;54.152;19.432;2023-02-04T00:09:22;101741.83;;;0.76;71.36
66742;BME280;53654;54.152;19.432;2023-02-04T00:11:50;101751.98;;;0.72;71.17
66742;BME280;53654;54.152;19.432;2023-02-04T00:14:17;101751.40;;;0.71;71.70
66742;BME280;53654;54.152;19.432;2023-02-04T00:16:45;101761.59;;;0.72;71.56
66742;BME280;53654;54.152;19.432;2023-02-04T00:19:13;101768.61;;;0.72;71.59
66742;BME280;53654;54.152;19.432;2023-02-04T00:21:43;101774.05;;;0.71;71.72
66742;BME280;53654;54.152;19.432;2023-02-04T00:24:11;101780.23;;;0.71;71.61
66742;BME280;53654;54.152;19.432;2023-02-04T00:26:39;101792.66;;;0.72;71.67
66742;BME280;53654;54.152;19.432;2023-02-04T00:29:07;101797.21;;;0.70;71.60
66742;BME280;53654;54.152;19.432;2023-02-04T00:31:35;101804.27;;;0.67;71.88
66742;BME280;53654;54.152;19.432;2023-02-04T00:34:03;101814.02;;;0.66;72.11
66742;BME280;53654;54.152;19.432;2023-02-04T00:36:31;101817.27;;;0.66;72.15
66742;BME280;53654;54.152;19.432;2023-02-04T00:38:59;101818.38;;;0.68;72.16
66742;BME280;53654;54.152;19.432;2023-02-04T00:41:28;101826.93;;;0.70;72.45
66742;BME280;53654;54.152;19.432;2023-02-04T00:43:56;101833.42;;;0.70;72.75
66742;BME280;53654;54.152;19.432;2023-02-04T00:46:24;101835.99;;;0.69;72.78
66742;BME280;53654;54.152;19.432;2023-02-04T00:48:52;101845.35;;;0.68;72.99
66742;BME280;53654;54.152;19.432;2023-02-04T00:51:20;101860.33;;;0.69;73.22
66742;BME280;53654;54.152;19.432;2023-02-04T00:53:48;101871.88;;;0.69;73.40
66742;BME280;53654;54.152;19.432;2023-02-04T00:56:16;101873.52;;;0.71;73.42
66742;BME280;53654;54.152;19.432;2023-02-04T00:58:44;101877.48;;;0.71;73.67
66742;BME280;53654;54.152;19.432;2023-02-04T01:01:12;101892.33;;;0.70;73.69
66742;BME280;53654;54.152;19.432;2023-02-04T01:03:41;101895.52;;;0.68;73.93
66742;BME280;53654;54.152;19.432;2023-02-04T01:06:09;101900.40;;;0.69;73.90
66742;BME280;53654;54.152;19.432;2023-02-04T01:08:37;101910.02;;;0.70;73.60
66742;BME280;53654;54.152;19.432;2023-02-04T01:11:05;101921.89;;;0.67;73.71
66742;BME280;53654;54.152;19.432;2023-02-04T01:13:33;101928.33;;;0.68;73.43
66742;BME280;53654;54.152;19.432;2023-02-04T01:16:01;101943.43;;;0.68;73.17
66742;BME280;53654;54.152;19.432;2023-02-04T01:18:29;101951.39;;;0.69;72.81
66742;BME280;53654;54.152;19.432;2023-02-04T01:20:57;101962.15;;;0.68;72.33
66742;BME280;53654;54.152;19.432;2023-02-04T01:23:25;101961.09;;;0.64;71.63
66742;BME280;53654;54.152;19.432;2023-02-04T01:25:54;101971.25;;;0.61;71.59
66742;BME280;53654;54.152;19.432;2023-02-04T01:28:22;101975.32;;;0.60;71.26
66742;BME280;53654;54.152;19.432;2023-02-04T01:30:50;101979.47;;;0.60;70.80
66742;BME280;53654;54.152;19.432;2023-02-04T01:33:18;101980.02;;;0.61;70.59
66742;BME280;53654;54.152;19.432;2023-02-04T01:35:46;101987.85;;;0.63;70.56
66742;BME280;53654;54.152;19.432;2023-02-04T01:38:14;101992.19;;;0.64;70.15
66742;BME280;53654;54.152;19.432;2023-02-04T01:40:43;102003.05;;;0.65;69.97
66742;BME280;53654;54.152;19.432;2023-02-04T01:43:11;102008.85;;;0.61;69.59
66742;BME280;53654;54.152;19.432;2023-02-04T01:45:39;102015.65;;;0.59;69.09
66742;BME280;53654;54.152;19.432;2023-02-04T01:48:08;102018.73;;;0.59;68.83
66742;BME280;53654;54.152;19.432;2023-02-04T01:50:37;102021.13;;;0.59;68.12
66742;BME280;53654;54.152;19.432;2023-02-04T01:53:05;102028.45;;;0.58;67.84
66742;BME280;53654;54.152;19.432;2023-02-04T01:55:34;102030.22;;;0.56;67.34
66742;BME280;53654;54.152;19.432;2023-02-04T01:58:02;102032.84;;;0.57;67.02
66742;BME280;53654;54.152;19.432;2023-02-04T02:00:31;102040.39;;;0.57;66.67
66742;BME280;53654;54.152;19.432;2023-02-04T02:03:00;102046.33;;;0.55;66.20
66742;BME280;53654;54.152;19.432;2023-02-04T02:05:43;102052.20;;;0.53;65.79
66742;BME280;53654;54.152;19.432;2023-02-04T02:08:12;102059.44;;;0.50;65.64
66742;BME280;53654;54.152;19.432;2023-02-04T02:10:43;102059.84;;;0.51;65.66
66742;BME280;53654;54.152;19.432;2023-02-04T02:13:15;102063.91;;;0.50;65.09
66742;BME280;53654;54.152;19.432;2023-02-04T02:15:45;102069.45;;;0.48;65.15
66742;BME280;53654;54.152;19.432;2023-02-04T02:18:15;102074.24;;;0.47;65.07
66742;BME280;53654;54.152;19.432;2023-02-04T02:20:44;102090.80;;;0.49;65.00
66742;BME280;53654;54.152;19.432;2023-02-04T02:23:51;102107.88;;;0.47;64.78
66742;BME280;53654;54.152;19.432;2023-02-04T02:26:21;102116.12;;;0.38;65.21
66742;BME280;53654;54.152;19.432;2023-02-04T02:28:51;102125.34;;;0.34;65.26
66742;BME280;53654;54.152;19.432;2023-02-04T02:31:20;102134.09;;;0.27;65.19
66742;BME280;53654;54.152;19.432;2023-02-04T02:33:49;102143.37;;;0.18;65.23
66742;BME280;53654;54.152;19.432;2023-02-04T02:36:18;102143.15;;;0.11;65.23
66742;BME280;53654;54.152;19.432;2023-02-04T02:38:46;102141.02;;;0.10;65.18
66742;BME280;53654;54.152;19.432;2023-02-04T02:41:15;102143.34;;;0.08;65.10
66742;BME280;53654;54.152;19.432;2023-02-04T02:43:43;102146.80;;;0.09;65.28
66742;BME280;53654;54.152;19.432;2023-02-04T02:46:11;102150.77;;;0.09;65.30
66742;BME280;53654;54.152;19.432;2023-02-04T02:48:39;102155.19;;;0.09;65.58
66742;BME280;53654;54.152;19.432;2023-02-04T02:51:07;102166.52;;;0.09;65.60
66742;BME280;53654;54.152;19.432;2023-02-04T02:53:35;102168.40;;;0.12;65.74
66742;BME280;53654;54.152;19.432;2023-02-04T02:56:04;102172.31;;;0.14;65.61
66742;BME280;53654;54.152;19.432;2023-02-04T02:58:34;102178.90;;;0.15;65.67
66742;BME280;53654;54.152;19.432;2023-02-04T03:01:05;102180.17;;;0.16;65.82
66742;BME280;53654;54.152;19.432;2023-02-04T03:03:49;102178.93;;;0.19;65.87
66742;BME280;53654;54.152;19.432;2023-02-04T03:06:22;102181.89;;;0.19;65.27
66742;BME280;53654;54.152;19.432;2023-02-04T03:08:53;102189.30;;;0.26;65.28
66742;BME280;53654;54.152;19.432;2023-02-04T03:11:23;102190.95;;;0.31;64.92
66742;BME280;53654;54.152;19.432;2023-02-04T03:13:53;102205.40;;;0.35;64.80
66742;BME280;53654;54.152;19.432;2023-02-04T03:16:22;102212.89;;;0.37;64.61
66742;BME280;53654;54.152;19.432;2023-02-04T03:18:50;102220.33;;;0.38;64.29
66742;BME280;53654;54.152;19.432;2023-02-04T03:21:18;102231.78;;;0.40;64.26
66742;BME280;53654;54.152;19.432;2023-02-04T03:23:46;102239.17;;;0.43;63.85
66742;BME280;53654;54.152;19.432;2023-02-04T03:26:15;102243.87;;;0.44;63.74
66742;BME280;53654;54.152;19.432;2023-02-04T03:28:43;102251.72;;;0.46;63.37
66742;BME280;53654;54.152;19.432;2023-02-04T03:31:11;102253.11;;;0.47;62.85
66742;BME280;53654;54.152;19.432;2023-02-04T03:33:39;102262.48;;;0.45;62.54
66742;BME280;53654;54.152;19.432;2023-02-04T03:36:09;102262.20;;;0.49;62.53
66742;BME280;53654;54.152;19.432;2023-02-04T03:38:37;102265.95;;;0.55;62.51
66742;BME280;53654;54.152;19.432;2023-02-04T03:41:05;102264.96;;;0.59;62.53
66742;BME280;53654;54.152;19.432;2023-02-04T03:43:33;102265.26;;;0.64;62.29
66742;BME280;53654;54.152;19.432;2023-02-04T03:46:02;102275.92;;;0.68;62.00
66742;BME280;53654;54.152;19.432;2023-02-04T03:48:30;102285.34;;;0.70;61.96
66742;BME280;53654;54.152;19.432;2023-02-04T03:50:58;102295.55;;;0.75;61.99
66742;BME280;53654;54.152;19.432;2023-02-04T03:53:26;102299.17;;;0.72;62.16
66742;BME280;53654;54.152;19.432;2023-02-04T03:55:54;102306.58;;;0.69;62.44
66742;BME280;53654;54.152;19.432;2023-02-04T03:58:22;102314.56;;;0.64;62.29
66742;BME280;53654;54.152;19.432;2023-02-04T04:00:50;102327.88;;;0.60;62.69
66742;BME280;53654;54.152;19.432;2023-02-04T04:03:19;102341.77;;;0.59;63.10
66742;BME280;53654;54.152;19.432;2023-02-04T04:05:46;102354.39;;;0.58;62.74
66742;BME280;53654;54.152;19.432;2023-02-04T04:08:15;102366.98;;;0.56;62.94
66742;BME280;53654;54.152;19.432;2023-02-04T04:10:43;102376.70;;;0.54;63.81
66742;BME280;53654;54.152;19.432;2023-02-04T04:13:11;102380.13;;;0.49;65.77
66742;BME280;53654;54.152;19.432;2023-02-04T04:15:39;102378.23;;;0.40;67.32
66742;BME280;53654;54.152;19.432;2023-02-04T04:18:07;102380.52;;;0.32;68.76
66742;BME280;53654;54.152;19.432;2023-02-04T04:20:36;102374.11;;;0.25;69.86
66742;BME280;53654;54.152;19.432;2023-02-04T04:23:04;102377.16;;;0.27;70.51
66742;BME280;53654;54.152;19.432;2023-02-04T04:25:32;102379.83;;;0.26;71.10
66742;BME280;53654;54.152;19.432;2023-02-04T04:28:00;102391.58;;;0.21;71.76
66742;BME280;53654;54.152;19.432;2023-02-04T04:30:28;102395.15;;;0.18;72.17
66742;BME280;53654;54.152;19.432;2023-02-04T04:32:57;102391.67;;;0.12;72.58
66742;BME280;53654;54.152;19.432;2023-02-04T04:35:25;102402.49;;;0.09;72.80
66742;BME280;53654;54.152;19.432;2023-02-04T04:37:53;102410.02;;;0.06;72.92
66742;BME280;53654;54.152;19.432;2023-02-04T04:40:21;102403.73;;;0.04;73.11
66742;BME280;53654;54.152;19.432;2023-02-04T04:42:49;102407.27;;;0.03;73.14
66742;BME280;53654;54.152;19.432;2023-02-04T04:45:18;102429.79;;;0.04;73.43
66742;BME280;53654;54.152;19.432;2023-02-04T04:47:46;102443.39;;;0.05;73.60
66742;BME280;53654;54.152;19.432;2023-02-04T04:50:15;102453.00;;;0.07;73.81
66742;BME280;53654;54.152;19.432;2023-02-04T04:52:43;102450.93;;;0.10;73.90
66742;BME280;53654;54.152;19.432;2023-02-04T04:55:11;102439.04;;;0.12;74.36
66742;BME280;53654;54.152;19.432;2023-02-04T04:57:39;102445.53;;;0.14;74.76
66742;BME280;53654;54.152;19.432;2023-02-04T05:00:13;102452.20;;;0.17;75.14
66742;BME280;53654;54.152;19.432;2023-02-04T05:02:42;102449.09;;;0.16;75.22
66742;BME280;53654;54.152;19.432;2023-02-04T05:05:11;102454.66;;;0.17;75.47
66742;BME280;53654;54.152;19.432;2023-02-04T05:07:39;102459.40;;;0.19;75.60
66742;BME280;53654;54.152;19.432;2023-02-04T05:10:07;102467.88;;;0.20;75.48
66742;BME280;53654;54.152;19.432;2023-02-04T05:12:35;102470.05;;;0.19;75.46
66742;BME280;53654;54.152;19.432;2023-02-04T05:15:04;102478.12;;;0.22;75.61
66742;BME280;53654;54.152;19.432;2023-02-04T05:17:33;102479.96;;;0.21;75.48
66742;BME280;53654;54.152;19.432;2023-02-04T05:20:01;102484.66;;;0.22;75.61
66742;BME280;53654;54.152;19.432;2023-02-04T05:22:29;102486.89;;;0.22;75.51
66742;BME280;53654;54.152;19.432;2023-02-04T05:24:57;102488.77;;;0.22;75.44
66742;BME280;53654;54.152;19.432;2023-02-04T05:27:25;102485.08;;;0.21;75.48
66742;BME280;53654;54.152;19.432;2023-02-04T05:29:53;102493.98;;;0.21;75.44
66742;BME280;53654;54.152;19.432;2023-02-04T05:32:21;102499.84;;;0.18;75.45
66742;BME280;53654;54.152;19.432;2023-02-04T05:34:49;102503.36;;;0.17;75.47
66742;BME280;53654;54.152;19.432;2023-02-04T05:37:17;102512.09;;;0.16;75.54
66742;BME280;53654;54.152;19.432;2023-02-04T05:39:47;102519.67;;;0.14;75.91
66742;BME280;53654;54.152;19.432;2023-02-04T05:42:16;102522.45;;;0.15;76.56
66742;BME280;53654;54.152;19.432;2023-02-04T05:44:44;102532.83;;;0.13;77.11
66742;BME280;53654;54.152;19.432;2023-02-04T05:47:13;102525.23;;;0.10;77.98
66742;BME280;53654;54.152;19.432;2023-02-04T05:49:41;102515.96;;;-0.01;79.35
66742;BME280;53654;54.152;19.432;2023-02-04T05:52:09;102516.73;;;-0.13;80.95
66742;BME280;53654;54.152;19.432;2023-02-04T05:54:38;102513.14;;;-0.16;81.08
66742;BME280;53654;54.152;19.432;2023-02-04T05:57:06;102519.07;;;-0.14;81.11
66742;BME280;53654;54.152;19.432;2023-02-04T05:59:34;102525.58;;;-0.11;80.68
66742;BME280;53654;54.152;19.432;2023-02-04T06:02:02;102521.77;;;-0.04;80.44
66742;BME280;53654;54.152;19.432;2023-02-04T06:04:30;102526.27;;;0.02;79.46
66742;BME280;53654;54.152;19.432;2023-02-04T06:06:59;102528.88;;;0.08;78.80
66742;BME280;53654;54.152;19.432;2023-02-04T06:09:27;102538.35;;;0.14;78.39
66742;BME280;53654;54.152;19.432;2023-02-04T06:11:55;102551.36;;;0.19;78.05
66742;BME280;53654;54.152;19.432;2023-02-04T06:14:24;102561.33;;;0.21;77.72
66742;BME280;53654;54.152;19.432;2023-02-04T06:16:52;102570.71;;;0.20;77.37
66742;BME280;53654;54.152;19.432;2023-02-04T06:19:21;102578.14;;;0.24;77.06
66742;BME280;53654;54.152;19.432;2023-02-04T06:21:49;102578.96;;;0.32;77.03
66742;BME280;53654;54.152;19.432;2023-02-04T06:24:17;102585.61;;;0.40;76.38
66742;BME280;53654;54.152;19.432;2023-02-04T06:26:45;102581.98;;;0.42;76.11
66742;BME280;53654;54.152;19.432;2023-02-04T06:29:13;102578.88;;;0.44;76.07
66742;BME280;53654;54.152;19.432;2023-02-04T06:31:41;102583.85;;;0.47;75.66
66742;BME280;53654;54.152;19.432;2023-02-04T06:34:10;102586.16;;;0.49;75.71
66742;BME280;53654;54.152;19.432;2023-02-04T06:36:38;102589.45;;;0.52;75.46
66742;BME280;53654;54.152;19.432;2023-02-04T06:39:06;102584.79;;;0.57;75.12
66742;BME280;53654;54.152;19.432;2023-02-04T06:41:34;102590.20;;;0.61;74.90
66742;BME280;53654;54.152;19.432;2023-02-04T06:44:02;102598.41;;;0.66;74.72
66742;BME280;53654;54.152;19.432;2023-02-04T06:46:30;102598.94;;;0.72;74.38
66742;BME280;53654;54.152;19.432;2023-02-04T06:48:58;102602.55;;;0.77;74.47
66742;BME280;53654;54.152;19.432;2023-02-04T06:51:26;102605.95;;;0.82;74.44
66742;BME280;53654;54.152;19.432;2023-02-04T06:53:55;102612.34;;;0.89;74.25
66742;BME280;53654;54.152;19.432;2023-02-04T06:56:23;102618.85;;;0.94;74.32
66742;BME280;53654;54.152;19.432;2023-02-04T06:58:51;102615.94;;;1.00;74.17
66742;BME280;53654;54.152;19.432;2023-02-04T07:01:19;102622.74;;;1.08;74.22
66742;BME280;53654;54.152;19.432;2023-02-04T07:03:47;102621.70;;;1.10;73.83
66742;BME280;53654;54.152;19.432;2023-02-04T07:06:15;102624.69;;;1.11;73.29
66742;BME280;53654;54.152;19.432;2023-02-04T07:08:43;102626.17;;;1.10;72.52
66742;BME280;53654;54.152;19.432;2023-02-04T07:11:11;102629.26;;;1.10;72.02
66742;BME280;53654;54.152;19.432;2023-02-04T07:13:40;102640.41;;;1.13;71.89
66742;BME280;53654;54.152;19.432;2023-02-04T07:16:08;102646.80;;;1.10;71.24
66742;BME280;53654;54.152;19.432;2023-02-04T07:18:36;102648.35;;;1.02;71.76
66742;BME280;53654;54.152;19.432;2023-02-04T07:21:04;102642.20;;;0.93;72.64
66742;BME280;53654;54.152;19.432;2023-02-04T07:23:33;102647.21;;;0.86;73.47
66742;BME280;53654;54.152;19.432;2023-02-04T07:26:01;102649.06;;;0.79;74.34
66742;BME280;53654;54.152;19.432;2023-02-04T07:28:29;102654.69;;;0.73;74.99
66742;BME280;53654;54.152;19.432;2023-02-04T07:30:58;102663.60;;;0.70;75.44
66742;BME280;53654;54.152;19.432;2023-02-04T07:33:26;102669.26;;;0.70;75.96
66742;BME280;53654;54.152;19.432;2023-02-04T07:35:55;102671.95;;;0.75;76.08
66742;BME280;53654;54.152;19.432;2023-02-04T07:38:23;102675.15;;;0.79;75.94
66742;BME280;53654;54.152;19.432;2023-02-04T07:40:52;102686.19;;;0.82;75.42
66742;BME280;53654;54.152;19.432;2023-02-04T07:43:20;102688.83;;;0.86;75.00
66742;BME280;53654;54.152;19.432;2023-02-04T07:45:49;102689.92;;;0.90;74.82
66742;BME280;53654;54.152;19.432;2023-02-04T07:48:17;102691.48;;;0.93;74.32
66742;BME280;53654;54.152;19.432;2023-02-04T07:50:45;102697.00;;;0.96;74.08
66742;BME280;53654;54.152;19.432;2023-02-04T07:53:13;102696.90;;;0.98;73.78
66742;BME280;53654;54.152;19.432;2023-02-04T07:55:41;102696.29;;;0.96;73.36
66742;BME280;53654;54.152;19.432;2023-02-04T07:58:10;102693.20;;;0.95;73.12
66742;BME280;53654;54.152;19.432;2023-02-04T08:00:38;102699.48;;;0.98;72.86
66742;BME280;53654;54.152;19.432;2023-02-04T08:03:06;102705.86;;;1.01;72.51
66742;BME280;53654;54.152;19.432;2023-02-04T08:05:34;102710.15;;;1.03;71.84
66742;BME280;53654;54.152;19.432;2023-02-04T08:08:02;102712.39;;;1.06;71.27
66742;BME280;53654;54.152;19.432;2023-02-04T08:10:30;102717.43;;;1.07;70.48
66742;BME280;53654;54.152;19.432;2023-02-04T08:12:59;102721.33;;;1.09;70.17
66742;BME280;53654;54.152;19.432;2023-02-04T08:15:27;102720.77;;;1.14;69.76
66742;BME280;53654;54.152;19.432;2023-02-04T08:17:55;102722.63;;;1.16;69.34
66742;BME280;53654;54.152;19.432;2023-02-04T08:20:23;102719.55;;;1.25;69.44
66742;BME280;53654;54.152;19.432;2023-02-04T08:22:52;102732.73;;;1.38;69.38
66742;BME280;53654;54.152;19.432;2023-02-04T08:25:20;102770.89;;;1.49;69.31
66742;BME280;53654;54.152;19.432;2023-02-04T08:27:48;102786.73;;;1.49;69.91
66742;BME280;53654;54.152;19.432;2023-02-04T08:30:16;102796.53;;;1.33;73.46
66742;BME280;53654;54.152;19.432;2023-02-04T08:32:44;102780.42;;;1.17;74.09
66742;BME280;53654;54.152;19.432;2023-02-04T08:35:13;102773.84;;;1.05;74.88
66742;BME280;53654;54.152;19.432;2023-02-04T08:37:41;102773.39;;;0.95;74.38
66742;BME280;53654;54.152;19.432;2023-02-04T08:40:10;102774.39;;;0.91;74.39
66742;BME280;53654;54.152;19.432;2023-02-04T08:42:38;102775.77;;;0.91;74.17
66742;BME280;53654;54.152;19.432;2023-02-04T08:45:07;102777.79;;;0.97;73.77
66742;BME280;53654;54.152;19.432;2023-02-04T08:47:35;102776.84;;;0.98;73.64
66742;BME280;53654;54.152;19.432;2023-02-04T08:50:03;102784.00;;;1.05;73.56
66742;BME280;53654;54.152;19.432;2023-02-04T08:52:31;102788.10;;;1.19;73.56
66742;BME280;53654;54.152;19.432;2023-02-04T08:54:59;102788.69;;;1.28;73.18
66742;BME280;53654;54.152;19.432;2023-02-04T08:57:27;102788.55;;;1.37;73.30
66742;BME280;53654;54.152;19.432;2023-02-04T08:59:55;102786.77;;;1.47;72.83
66742;BME280;53654;54.152;19.432;2023-02-04T09:02:23;102783.20;;;1.53;72.26
66742;BME280;53654;54.152;19.432;2023-02-04T09:04:52;102781.95;;;1.58;72.00
66742;BME280;53654;54.152;19.432;2023-02-04T09:07:20;102784.84;;;1.64;71.33
66742;BME280;53654;54.152;19.432;2023-02-04T09:09:48;102789.72;;;1.67;70.88
66742;BME280;53654;54.152;19.432;2023-02-04T09:12:16;102784.55;;;1.73;70.73
66742;BME280;53654;54.152;19.432;2023-02-04T09:14:44;102778.19;;;1.82;70.36
66742;BME280;53654;54.152;19.432;2023-02-04T09:17:13;102782.02;;;1.91;69.80
66742;BME280;53654;54.152;19.432;2023-02-04T09:19:41;102791.27;;;2.02;69.88
66742;BME280;53654;54.152;19.432;2023-02-04T09:22:09;102804.76;;;2.12;68.76
66742;BME280;53654;54.152;19.432;2023-02-04T09:24:39;102819.23;;;2.12;68.50
66742;BME280;53654;54.152;19.432;2023-02-04T09:27:07;102825.73;;;2.05;69.55
66742;BME280;53654;54.152;19.432;2023-02-04T09:29:35;102838.59;;;1.99;70.50
66742;BME280;53654;54.152;19.432;2023-02-04T09:32:03;102841.30;;;1.86;72.08
66742;BME280;53654;54.152;19.432;2023-02-04T09:34:31;102832.58;;;1.65;73.78
66742;BME280;53654;54.152;19.432;2023-02-04T09:36:59;102832.73;;;1.50;74.78
66742;BME280;53654;54.152;19.432;2023-02-04T09:39:27;102824.92;;;1.41;75.33
66742;BME280;53654;54.152;19.432;2023-02-04T09:41:57;102824.61;;;1.39;75.79
66742;BME280;53654;54.152;19.432;2023-02-04T09:44:27;102821.09;;;1.43;75.69
66742;BME280;53654;54.152;19.432;2023-02-04T09:46:58;102818.92;;;1.42;75.15
66742;BME280;53654;54.152;19.432;2023-02-04T09:49:27;102817.57;;;1.44;74.98
66742;BME280;53654;54.152;19.432;2023-02-04T09:51:55;102811.89;;;1.55;74.57
66742;BME280;53654;54.152;19.432;2023-02-04T09:54:24;102823.89;;;1.63;73.66
66742;BME280;53654;54.152;19.432;2023-02-04T09:56:52;102839.39;;;1.67;73.34
66742;BME280;53654;54.152;19.432;2023-02-04T09:59:22;102841.89;;;1.68;73.73
66742;BME280;53654;54.152;19.432;2023-02-04T10:01:56;102843.73;;;1.68;74.00
66742;BME280;53654;54.152;19.432;2023-02-04T10:04:26;102854.47;;;1.66;73.30
66742;BME280;53654;54.152;19.432;2023-02-04T10:06:56;102854.09;;;1.59;72.69
66742;BME280;53654;54.152;19.432;2023-02-04T10:09:27;102848.19;;;1.55;72.46
66742;BME280;53654;54.152;19.432;2023-02-04T10:11:56;102852.27;;;1.63;72.44
66742;BME280;53654;54.152;19.432;2023-02-04T10:14:24;102849.69;;;1.75;72.47
66742;BME280;53654;54.152;19.432;2023-02-04T10:16:57;102858.91;;;1.82;72.40
66742;BME280;53654;54.152;19.432;2023-02-04T10:19:28;102875.02;;;1.86;72.15
66742;BME280;53654;54.152;19.432;2023-02-04T10:21:58;102889.95;;;1.89;71.80
66742;BME280;53654;54.152;19.432;2023-02-04T10:24:27;102886.46;;;1.85;71.60
66742;BME280;53654;54.152;19.432;2023-02-04T10:27:08;102894.65;;;1.81;72.06
66742;BME280;53654;54.152;19.432;2023-02-04T10:29:37;102890.12;;;1.72;72.20
66742;BME280;53654;54.152;19.432;2023-02-04T10:32:27;102879.91;;;1.68;72.53
66742;BME280;53654;54.152;19.432;2023-02-04T10:34:58;102872.95;;;1.58;72.63
66742;BME280;53654;54.152;19.432;2023-02-04T10:37:27;102873.05;;;1.54;72.65
66742;BME280;53654;54.152;19.432;2023-02-04T10:39:57;102877.16;;;1.54;72.62
66742;BME280;53654;54.152;19.432;2023-02-04T10:42:28;102876.87;;;1.52;72.46
66742;BME280;53654;54.152;19.432;2023-02-04T10:44:56;102881.31;;;1.54;72.51
66742;BME280;53654;54.152;19.432;2023-02-04T10:47:27;102884.66;;;1.58;72.48
66742;BME280;53654;54.152;19.432;2023-02-04T10:50:16;102874.11;;;1.63;72.30
66742;BME280;53654;54.152;19.432;2023-02-04T10:52:48;102874.50;;;1.64;72.22
66742;BME280;53654;54.152;19.432;2023-02-04T10:55:19;102879.25;;;1.66;72.04
66742;BME280;53654;54.152;19.432;2023-02-04T10:57:50;102879.51;;;1.64;71.58
66742;BME280;53654;54.152;19.432;2023-02-04T11:00:23;102877.80;;;1.65;71.72
66742;BME280;53654;54.152;19.432;2023-02-04T11:03:02;102877.80;;;1.61;71.88
66742;BME280;53654;54.152;19.432;2023-02-04T11:05:33;102877.74;;;1.64;71.85
66742;BME280;53654;54.152;19.432;2023-02-04T11:08:23;102882.02;;;1.72;72.18
66742;BME280;53654;54.152;19.432;2023-02-04T11:10:57;102888.98;;;1.76;72.04
66742;BME280;53654;54.152;19.432;2023-02-04T11:16:25;102895.58;;;1.71;72.50
66742;BME280;53654;54.152;19.432;2023-02-04T11:18:59;102897.73;;;1.64;73.34
66742;BME280;53654;54.152;19.432;2023-02-04T11:26:51;102908.21;;;1.58;75.19
66742;BME280;53654;54.152;19.432;2023-02-04T11:29:31;102916.45;;;1.66;75.58
66742;BME280;53654;54.152;19.432;2023-02-04T11:32:04;102927.61;;;1.72;75.83
66742;BME280;53654;54.152;19.432;2023-02-04T11:34:49;102935.13;;;1.73;75.70
66742;BME280;53654;54.152;19.432;2023-02-04T11:37:42;102936.80;;;1.64;75.62
66742;BME280;53654;54.152;19.432;2023-02-04T11:40:34;102940.17;;;1.52;74.95
66742;BME280;53654;54.152;19.432;2023-02-04T11:43:13;102941.03;;;1.46;74.97
66742;BME280;53654;54.152;19.432;2023-02-04T11:45:42;102944.88;;;1.45;74.41
66742;BME280;53654;54.152;19.432;2023-02-04T11:48:16;102943.61;;;1.44;73.26
66742;BME280;53654;54.152;19.432;2023-02-04T11:50:59;102949.45;;;1.41;73.06
66742;BME280;53654;54.152;19.432;2023-02-04T11:53:30;102952.41;;;1.39;72.83
66742;BME280;53654;54.152;19.432;2023-02-04T11:55:59;102948.37;;;1.46;72.40
66742;BME280;53654;54.152;19.432;2023-02-04T11:58:29;102941.56;;;1.55;71.79
66742;BME280;53654;54.152;19.432;2023-02-04T12:00:58;102942.14;;;1.67;71.82
66742;BME280;53654;54.152;19.432;2023-02-04T12:03:27;102946.46;;;1.84;71.68
66742;BME280;53654;54.152;19.432;2023-02-04T12:05:59;102956.68;;;1.99;71.26
66742;BME280;53654;54.152;19.432;2023-02-04T12:08:33;102976.14;;;2.04;70.80
66742;BME280;53654;54.152;19.432;2023-02-04T12:11:26;102988.86;;;1.90;72.41
66742;BME280;53654;54.152;19.432;2023-02-04T12:14:05;103011.70;;;1.68;74.26
66742;BME280;53654;54.152;19.432;2023-02-04T12:16:45;103019.17;;;1.47;74.31
66742;BME280;53654;54.152;19.432;2023-02-04T12:19:13;103010.66;;;1.23;73.86
66742;BME280;53654;54.152;19.432;2023-02-04T12:21:42;102999.83;;;1.09;73.92
66742;BME280;53654;54.152;19.432;2023-02-04T12:24:10;102996.98;;;1.06;73.64
66742;BME280;53654;54.152;19.432;2023-02-04T12:26:38;102998.41;;;0.93;72.86
66742;BME280;53654;54.152;19.432;2023-02-04T12:29:07;103004.98;;;0.86;72.80
66742;BME280;53654;54.152;19.432;2023-02-04T12:31:36;103004.67;;;0.86;72.83
66742;BME280;53654;54.152;19.432;2023-02-04T12:34:04;103002.83;;;0.84;73.28
66742;BME280;53654;54.152;19.432;2023-02-04T12:36:32;102996.02;;;0.80;73.73
66742;BME280;53654;54.152;19.432;2023-02-04T12:39:00;102993.88;;;0.84;74.15
66742;BME280;53654;54.152;19.432;2023-02-04T12:41:29;102991.64;;;0.87;74.38
66742;BME280;53654;54.152;19.432;2023-02-04T12:43:57;102993.47;;;0.86;74.07
66742;BME280;53654;54.152;19.432;2023-02-04T12:46:28;102995.13;;;0.82;74.37
66742;BME280;53654;54.152;19.432;2023-02-04T12:48:56;102987.95;;;0.83;74.42
66742;BME280;53654;54.152;19.432;2023-02-04T12:51:25;102985.40;;;0.86;74.35
66742;BME280;53654;54.152;19.432;2023-02-04T12:53:53;102983.61;;;0.83;74.18
66742;BME280;53654;54.152;19.432;2023-02-04T12:56:21;102982.16;;;0.81;73.82
66742;BME280;53654;54.152;19.432;2023-02-04T12:58:51;102982.55;;;0.82;73.76
66742;BME280;53654;54.152;19.432;2023-02-04T13:01:19;102985.37;;;0.91;73.80
66742;BME280;53654;54.152;19.432;2023-02-04T13:03:47;102994.96;;;1.01;73.45
66742;BME280;53654;54.152;19.432;2023-02-04T13:06:15;103004.96;;;1.09;72.91
66742;BME280;53654;54.152;19.432;2023-02-04T13:08:43;103008.52;;;1.13;72.39
66742;BME280;53654;54.152;19.432;2023-02-04T13:11:11;103013.36;;;1.19;72.12